Time;durP1;ratioP1;P1;durP2;ratioP2;P2;SDS_P1;SDS_P2;PMS_P1;PMS_P2;Temp;Humidity;BMP_temperature;BMP_pressure;BME280_temperature;BME280_humidity;BME280_pressure;Samples;Min_cycle;Max_cycle;Signal;HPM_P1;HPM_P2
2021/05/23 00:01:27;;;;;;;1.60;1.50;;;12.80;89.90;;;;;;5029221;28;20467;-79
2021/05/23 00:03:54;;;;;;;1.97;1.37;;;12.80;90.10;;;;;;5028970;28;20449;-78
2021/05/23 00:06:20;;;;;;;1.50;1.40;;;12.80;90.00;;;;;;5030122;28;20535;-78
2021/05/23 00:08:46;;;;;;;2.03;1.20;;;12.80;90.10;;;;;;5031021;28;20493;-79
2021/05/23 00:11:13;;;;;;;1.10;1.10;;;12.80;90.30;;;;;;5031140;28;20452;-78
2021/05/23 00:13:42;;;;;;;1.33;1.23;;;12.80;90.30;;;;;;5031507;28;20446;-79
2021/05/23 00:16:11;;;;;;;1.33;1.23;;;12.80;90.40;;;;;;5030540;28;20454;-79
2021/05/23 00:18:40;;;;;;;1.40;1.30;;;12.80;90.50;;;;;;5031345;28;20488;-79
2021/05/23 00:21:09;;;;;;;1.93;1.40;;;12.80;90.50;;;;;;5030904;28;20465;-78
2021/05/23 00:23:35;;;;;;;1.23;1.13;;;12.70;90.60;;;;;;5029693;28;20435;-79
2021/05/23 00:26:02;;;;;;;3.43;1.33;;;12.70;90.80;;;;;;5029157;28;20490;-80
2021/05/23 00:28:29;;;;;;;1.60;1.50;;;12.70;91.10;;;;;;5030247;28;20466;-80
2021/05/23 00:30:56;;;;;;;1.50;1.40;;;12.70;91.20;;;;;;5030710;28;20457;-80
2021/05/23 00:33:23;;;;;;;1.40;1.30;;;12.70;91.30;;;;;;5029738;28;20834;-80
2021/05/23 00:35:49;;;;;;;3.10;1.90;;;12.70;91.40;;;;;;5030015;28;20445;-79
2021/05/23 00:38:15;;;;;;;1.00;1.00;;;12.70;91.50;;;;;;5029540;28;20511;-79
2021/05/23 00:40:42;;;;;;;1.03;1.03;;;12.70;91.80;;;;;;5028441;28;20480;-79
2021/05/23 00:43:10;;;;;;;1.30;1.20;;;12.60;92.00;;;;;;5029627;28;20487;-79
2021/05/23 00:45:38;;;;;;;1.53;1.43;;;12.50;92.30;;;;;;5028784;28;20489;-79
2021/05/23 00:48:05;;;;;;;1.40;1.30;;;12.40;92.70;;;;;;5030792;28;20456;-79
2021/05/23 00:50:33;;;;;;;6.00;2.00;;;12.40;93.10;;;;;;5032335;28;21017;-79
2021/05/23 00:53:00;;;;;;;1.13;1.13;;;12.40;93.20;;;;;;5031779;28;20459;-78
2021/05/23 00:55:27;;;;;;;1.50;1.20;;;12.40;93.30;;;;;;5031658;28;20451;-79
2021/05/23 00:57:54;;;;;;;1.50;1.20;;;12.30;93.50;;;;;;5032309;28;20453;-80
2021/05/23 01:00:52;;;;;;;1.30;1.20;;;12.30;93.70;;;;;;5029954;28;20467;-81
2021/05/23 01:03:51;;;;;;;1.33;1.23;;;12.20;94.00;;;;;;5005018;28;20472;-81
2021/05/23 01:06:18;;;;;;;3.77;1.57;;;12.20;94.20;;;;;;5017363;28;20501;-80
2021/05/23 01:08:44;;;;;;;3.53;1.50;;;12.20;94.50;;;;;;5016822;28;20491;-81
2021/05/23 01:11:53;;;;;;;1.73;1.63;;;12.20;94.70;;;;;;5017103;28;20541;-81
2021/05/23 01:14:38;;;;;;;1.40;1.30;;;12.20;94.90;;;;;;5017151;28;20464;-81
2021/05/23 01:17:05;;;;;;;1.50;1.40;;;12.10;96.30;;;;;;5016976;28;20484;-81
2021/05/23 01:19:45;;;;;;;1.40;1.30;;;12.10;96.80;;;;;;5016376;28;20833;-81
2021/05/23 01:22:17;;;;;;;1.33;1.13;;;12.10;97.10;;;;;;5016441;28;20440;-80
2021/05/23 01:24:51;;;;;;;1.00;1.00;;;12.00;97.30;;;;;;5017178;28;20453;-81
2021/05/23 01:27:26;;;;;;;2.93;1.60;;;12.00;97.60;;;;;;5016224;28;20526;-80
2021/05/23 01:29:53;;;;;;;1.33;1.20;;;11.90;97.80;;;;;;5016377;28;20469;-81
2021/05/23 01:32:19;;;;;;;1.80;1.70;;;11.80;97.90;;;;;;5016555;28;20449;-81
2021/05/23 01:34:47;;;;;;;1.70;1.10;;;11.70;98.20;;;;;;5015828;28;20460;-81
2021/05/23 01:37:15;;;;;;;8.23;1.40;;;11.80;98.40;;;;;;5016145;28;20449;-81
2021/05/23 01:39:42;;;;;;;1.50;0.90;;;11.60;98.50;;;;;;5015927;28;20480;-81
2021/05/23 01:42:09;;;;;;;2.30;1.60;;;11.70;98.70;;;;;;5016246;28;20479;-81
2021/05/23 01:44:36;;;;;;;1.70;1.20;;;11.70;98.90;;;;;;5016356;28;20465;-81
2021/05/23 01:47:02;;;;;;;0.70;0.70;;;11.70;99.20;;;;;;5016411;28;20492;-81
2021/05/23 01:49:29;;;;;;;1.20;1.03;;;11.70;99.40;;;;;;5015662;28;20477;-81
2021/05/23 01:51:57;;;;;;;1.30;1.20;;;11.70;99.60;;;;;;5016346;28;20459;-80
2021/05/23 01:54:23;;;;;;;1.07;1.03;;;11.70;99.80;;;;;;5016291;28;20491;-81
2021/05/23 01:56:50;;;;;;;2.20;1.03;;;11.70;99.80;;;;;;5016672;28;20454;-81
2021/05/23 01:59:16;;;;;;;1.17;1.13;;;11.70;99.90;;;;;;5016053;28;20477;-81
2021/05/23 02:01:43;;;;;;;1.33;1.10;;;11.70;99.90;;;;;;5015810;28;20471;-81
2021/05/23 02:04:09;;;;;;;1.13;1.03;;;11.60;99.90;;;;;;5016082;28;20511;-81
2021/05/23 02:06:36;;;;;;;0.80;0.80;;;11.60;99.90;;;;;;5016516;28;20465;-81
2021/05/23 02:09:02;;;;;;;1.37;1.27;;;11.60;99.90;;;;;;5015792;28;20480;-80
2021/05/23 02:11:29;;;;;;;0.90;0.80;;;11.50;99.90;;;;;;5015525;28;20547;-81
2021/05/23 02:13:55;;;;;;;0.90;0.90;;;11.50;99.90;;;;;;5016236;28;20456;-81
2021/05/23 02:16:22;;;;;;;1.60;1.00;;;11.50;99.90;;;;;;5016004;28;20504;-80
2021/05/23 02:18:49;;;;;;;1.00;1.00;;;11.50;99.90;;;;;;5015502;28;20476;-81
2021/05/23 02:21:16;;;;;;;1.30;1.20;;;11.50;99.90;;;;;;5015987;28;20460;-81
2021/05/23 02:23:49;;;;;;;0.90;0.83;;;11.50;99.90;;;;;;5015394;28;20461;-81
2021/05/23 02:26:15;;;;;;;1.70;1.60;;;11.60;99.90;;;;;;5016514;28;20456;-80
2021/05/23 02:28:41;;;;;;;1.67;1.20;;;11.50;99.90;;;;;;5016254;28;20478;-81
2021/05/23 02:31:08;;;;;;;1.50;1.03;;;11.40;99.90;;;;;;5017153;28;20463;-81
2021/05/23 02:33:34;;;;;;;1.13;1.03;;;11.10;99.90;;;;;;5015483;28;20475;-81
2021/05/23 02:36:01;;;;;;;1.70;1.20;;;10.90;99.90;;;;;;5015138;28;20545;-81
2021/05/23 02:38:27;;;;;;;1.40;1.40;;;10.80;99.90;;;;;;5022319;28;20528;-79
2021/05/23 02:40:54;;;;;;;0.75;0.70;;;10.50;99.90;;;;;;5031493;28;20447;-80
2021/05/23 02:43:24;;;;;;;0.98;0.77;;;10.20;99.90;;;;;;5031167;28;20227;-80
2021/05/23 02:45:50;;;;;;;1.00;1.00;;;10.00;99.90;;;;;;5030152;28;20241;-81
2021/05/23 02:48:17;;;;;;;2.25;0.65;;;9.80;99.90;;;;;;5015109;28;20231;-82
2021/05/23 02:50:45;;;;;;;2.90;0.77;;;9.60;99.90;;;;;;5016818;28;20205;-82
2021/05/23 02:53:13;;;;;;;0.73;0.68;;;9.50;99.90;;;;;;5019234;28;20215;-82
2021/05/23 02:55:41;;;;;;;1.30;1.20;;;9.40;99.90;;;;;;5019154;28;20249;-82
2021/05/23 02:58:10;;;;;;;0.93;0.73;;;9.40;99.90;;;;;;5018796;28;20211;-82
2021/05/23 03:00:36;;;;;;;0.60;0.60;;;9.30;99.90;;;;;;5018084;28;20698;-82
2021/05/23 03:03:03;;;;;;;0.50;0.50;;;9.30;99.90;;;;;;5017905;28;20205;-82
2021/05/23 03:05:30;;;;;;;0.98;0.70;;;9.30;99.90;;;;;;5017353;28;20211;-82
2021/05/23 03:07:58;;;;;;;0.60;0.60;;;9.20;99.90;;;;;;5017897;28;20204;-82
2021/05/23 03:10:27;;;;;;;2.90;0.70;;;9.20;99.90;;;;;;5017658;28;20211;-82
2021/05/23 03:12:54;;;;;;;0.60;0.60;;;9.20;99.90;;;;;;5017220;28;20226;-82
2021/05/23 03:15:22;;;;;;;0.47;0.47;;;9.20;99.90;;;;;;5017549;28;20219;-82
2021/05/23 03:17:49;;;;;;;0.77;0.73;;;9.30;99.90;;;;;;5017571;28;20277;-82
2021/05/23 03:20:17;;;;;;;1.45;0.80;;;9.30;99.90;;;;;;5017249;28;20387;-82
2021/05/23 03:22:44;;;;;;;0.50;0.50;;;9.30;99.90;;;;;;5017023;28;20211;-82
2021/05/23 03:25:12;;;;;;;1.13;1.02;;;9.40;99.90;;;;;;5017395;28;20253;-82
2021/05/23 03:27:39;;;;;;;1.40;0.80;;;9.40;99.90;;;;;;5017132;28;20211;-82
2021/05/23 03:30:08;;;;;;;0.95;0.77;;;9.40;99.90;;;;;;5017461;28;20228;-82
2021/05/23 03:32:34;;;;;;;2.45;0.65;;;9.50;99.90;;;;;;5016820;28;20218;-82
2021/05/23 03:35:01;;;;;;;0.93;0.93;;;9.50;99.90;;;;;;5017133;28;20205;-82
2021/05/23 03:37:27;;;;;;;1.92;0.60;;;9.50;99.90;;;;;;5016841;28;20227;-82
2021/05/23 03:39:54;;;;;;;0.70;0.70;;;9.50;99.90;;;;;;5017403;28;20235;-82
2021/05/23 03:42:20;;;;;;;0.73;0.73;;;9.50;99.90;;;;;;5017151;28;20207;-81
2021/05/23 03:44:47;;;;;;;0.95;0.70;;;9.60;99.90;;;;;;5017130;28;20598;-82
2021/05/23 03:47:13;;;;;;;2.05;1.25;;;9.50;99.90;;;;;;5017243;28;20215;-81
2021/05/23 03:49:40;;;;;;;0.68;0.68;;;9.50;99.90;;;;;;5017886;28;20228;-81
2021/05/23 03:52:06;;;;;;;2.70;1.45;;;9.50;99.90;;;;;;5017421;28;20229;-82
2021/05/23 03:54:32;;;;;;;1.25;0.90;;;9.60;99.90;;;;;;5017493;28;20658;-81
2021/05/23 03:56:59;;;;;;;1.02;0.80;;;9.60;99.90;;;;;;5018090;28;20231;-81
2021/05/23 03:59:25;;;;;;;0.85;0.85;;;9.60;99.90;;;;;;5017764;28;20231;-82
2021/05/23 04:01:52;;;;;;;1.30;0.77;;;9.60;99.90;;;;;;5018857;28;20206;-81
2021/05/23 04:04:20;;;;;;;0.65;0.65;;;9.70;99.90;;;;;;5017835;28;20212;-81
2021/05/23 04:06:46;;;;;;;0.85;0.85;;;9.70;99.90;;;;;;5019125;28;20258;-83
2021/05/23 04:09:13;;;;;;;0.95;0.70;;;9.70;99.90;;;;;;5022844;28;20283;-82
2021/05/23 04:11:42;;;;;;;0.80;0.80;;;9.70;99.90;;;;;;5026540;28;20207;-82
2021/05/23 04:14:10;;;;;;;1.42;0.90;;;9.60;99.90;;;;;;5031112;28;20206;-81
2021/05/23 04:16:36;;;;;;;0.60;0.60;;;9.70;99.90;;;;;;5032449;28;20224;-82
2021/05/23 04:19:04;;;;;;;0.73;0.73;;;9.60;99.90;;;;;;5033703;28;20223;-81
2021/05/23 04:21:30;;;;;;;1.25;0.75;;;9.60;99.90;;;;;;5034073;28;20212;-82
2021/05/23 04:23:57;;;;;;;0.70;0.70;;;9.60;99.90;;;;;;5035437;28;20214;-82
2021/05/23 04:26:23;;;;;;;0.88;0.88;;;9.70;99.90;;;;;;5035404;28;20210;-81
2021/05/23 04:28:49;;;;;;;1.20;0.95;;;9.70;99.90;;;;;;5034016;28;20222;-82
2021/05/23 04:31:16;;;;;;;1.23;0.80;;;9.70;99.90;;;;;;5036643;28;20193;-81
2021/05/23 04:33:42;;;;;;;1.23;0.80;;;9.80;99.90;;;;;;5035610;28;20218;-82
2021/05/23 04:36:09;;;;;;;0.80;0.80;;;9.80;99.90;;;;;;5036192;28;20232;-82
2021/05/23 04:38:35;;;;;;;0.70;0.70;;;9.80;99.90;;;;;;5036742;28;20237;-80
2021/05/23 04:41:02;;;;;;;0.50;0.50;;;9.80;99.90;;;;;;5035369;28;20209;-80
2021/05/23 04:43:28;;;;;;;0.85;0.85;;;9.80;99.90;;;;;;5036253;28;20216;-81
2021/05/23 04:45:54;;;;;;;1.10;1.10;;;9.80;99.90;;;;;;5036307;28;20208;-80
2021/05/23 04:48:20;;;;;;;1.25;0.80;;;9.80;99.90;;;;;;5036313;28;20232;-80
2021/05/23 04:50:49;;;;;;;0.82;0.63;;;9.90;99.90;;;;;;5036569;28;20219;-80
2021/05/23 04:53:16;;;;;;;0.90;0.77;;;9.90;99.90;;;;;;5035950;28;20221;-80
2021/05/23 04:55:42;;;;;;;0.70;0.70;;;9.90;99.90;;;;;;5036504;28;20227;-80
2021/05/23 04:58:08;;;;;;;1.25;0.77;;;9.90;99.90;;;;;;5036732;28;20226;-80
2021/05/23 05:00:34;;;;;;;1.07;1.00;;;10.00;99.90;;;;;;5037506;28;20213;-80
2021/05/23 05:03:01;;;;;;;3.47;3.25;;;10.00;99.90;;;;;;5036738;28;20539;-80
2021/05/23 05:05:27;;;;;;;1.27;1.00;;;10.10;99.90;;;;;;5036574;28;20226;-81
2021/05/23 05:07:54;;;;;;;0.98;0.98;;;10.10;99.90;;;;;;5037501;28;20457;-81
2021/05/23 05:10:21;;;;;;;1.27;1.17;;;10.20;99.90;;;;;;5037096;28;20200;-80
2021/05/23 05:12:47;;;;;;;1.70;1.00;;;10.20;99.90;;;;;;5035856;28;20449;-81
2021/05/23 05:15:14;;;;;;;0.97;0.97;;;10.30;99.90;;;;;;5036347;28;20205;-81
2021/05/23 05:17:40;;;;;;;1.10;1.00;;;10.40;99.90;;;;;;5034196;28;20475;-81
2021/05/23 05:20:10;;;;;;;1.30;1.20;;;10.40;99.90;;;;;;5036972;28;20539;-80
2021/05/23 05:22:37;;;;;;;1.70;0.93;;;10.50;99.90;;;;;;5036739;28;21005;-80
2021/05/23 05:25:04;;;;;;;1.10;1.00;;;10.50;99.90;;;;;;5031526;28;20476;-80
2021/05/23 05:27:31;;;;;;;0.90;0.90;;;10.60;99.90;;;;;;5036250;28;20487;-80
2021/05/23 05:29:57;;;;;;;1.37;0.97;;;10.70;99.90;;;;;;5036169;28;20472;-81
2021/05/23 05:32:24;;;;;;;0.83;0.83;;;10.80;99.90;;;;;;5036622;28;20463;-80
2021/05/23 05:34:50;;;;;;;0.82;0.82;;;10.80;99.90;;;;;;5035990;28;20457;-80
2021/05/23 05:37:17;;;;;;;1.43;1.33;;;10.90;99.90;;;;;;5035368;28;20229;-80
2021/05/23 05:39:43;;;;;;;0.90;0.90;;;11.00;99.90;;;;;;5035644;28;20475;-81
2021/05/23 05:42:09;;;;;;;0.80;0.80;;;11.10;99.90;;;;;;5030725;28;20459;-80
2021/05/23 05:44:36;;;;;;;1.37;1.27;;;11.20;99.90;;;;;;5035786;28;20461;-80
2021/05/23 05:47:03;;;;;;;0.90;0.90;;;11.30;99.90;;;;;;5035595;28;20449;-80
2021/05/23 05:49:31;;;;;;;1.00;1.00;;;11.40;99.90;;;;;;5036340;28;20460;-80
2021/05/23 05:51:57;;;;;;;0.83;0.83;;;11.50;99.90;;;;;;5035968;28;20455;-80
2021/05/23 05:54:23;;;;;;;0.80;0.80;;;11.50;99.90;;;;;;5036193;28;20458;-81
2021/05/23 05:56:49;;;;;;;0.80;0.80;;;11.60;99.90;;;;;;5035969;28;20480;-80
2021/05/23 05:59:15;;;;;;;2.10;1.87;;;11.50;99.90;;;;;;5035112;28;20477;-80
2021/05/23 06:01:43;;;;;;;0.80;0.80;;;11.50;99.90;;;;;;5035067;28;20516;-80
2021/05/23 06:04:09;;;;;;;2.07;1.20;;;11.50;99.90;;;;;;5034798;28;20457;-80
2021/05/23 06:06:35;;;;;;;2.07;1.07;;;11.50;99.90;;;;;;5034863;28;20451;-80
2021/05/23 06:09:02;;;;;;;0.90;0.90;;;11.50;99.90;;;;;;5034750;28;20471;-80
2021/05/23 06:11:30;;;;;;;1.10;0.90;;;11.50;99.90;;;;;;5033859;28;20464;-80
2021/05/23 06:13:56;;;;;;;0.67;0.67;;;11.40;99.90;;;;;;5033397;28;20468;-81
2021/05/23 06:16:22;;;;;;;0.73;0.73;;;11.40;99.90;;;;;;5033421;28;20487;-80
2021/05/23 06:18:49;;;;;;;1.10;1.03;;;11.50;99.90;;;;;;5033672;28;20457;-79
2021/05/23 06:21:15;;;;;;;0.80;0.80;;;11.50;99.90;;;;;;5034481;28;20480;-80
2021/05/23 06:23:42;;;;;;;1.40;1.30;;;11.50;99.90;;;;;;5034018;28;20461;-80
2021/05/23 06:26:13;;;;;;;0.67;0.67;;;11.60;99.90;;;;;;5033400;28;20445;-80
2021/05/23 06:28:39;;;;;;;0.50;0.50;;;11.70;99.90;;;;;;5033799;28;20485;-80
2021/05/23 06:31:05;;;;;;;0.90;0.90;;;11.80;99.90;;;;;;5033634;28;20483;-80
2021/05/23 06:33:31;;;;;;;5.13;1.03;;;11.90;99.90;;;;;;5032536;28;20452;-79
2021/05/23 06:35:59;;;;;;;2.47;0.90;;;11.90;99.90;;;;;;5032358;28;20507;-79
2021/05/23 06:38:25;;;;;;;0.90;0.90;;;11.90;99.90;;;;;;5031771;28;20479;-79
2021/05/23 06:40:54;;;;;;;0.80;0.80;;;12.00;99.90;;;;;;5031241;28;20536;-80
2021/05/23 06:43:20;;;;;;;1.17;0.90;;;12.00;99.90;;;;;;5030926;28;21024;-79
2021/05/23 06:45:46;;;;;;;1.90;0.80;;;12.00;99.90;;;;;;5031453;28;20448;-79
2021/05/23 06:48:14;;;;;;;0.70;0.70;;;12.00;99.90;;;;;;5031052;28;20643;-80
2021/05/23 06:50:41;;;;;;;0.80;0.77;;;11.90;99.90;;;;;;5030676;28;20468;-79
2021/05/23 06:53:08;;;;;;;2.20;1.00;;;11.90;99.90;;;;;;5030164;28;20452;-79
2021/05/23 06:55:34;;;;;;;0.73;0.73;;;11.80;99.90;;;;;;5030655;28;20895;-80
2021/05/23 06:58:00;;;;;;;1.47;0.97;;;11.70;99.90;;;;;;5030546;28;20445;-79
2021/05/23 07:00:27;;;;;;;0.83;0.70;;;11.60;99.90;;;;;;5029243;28;20467;-79
2021/05/23 07:02:53;;;;;;;1.00;0.80;;;11.60;99.90;;;;;;5033400;28;20458;-80
2021/05/23 07:05:19;;;;;;;0.70;0.70;;;11.60;99.90;;;;;;5034631;28;20198;-81
2021/05/23 07:07:47;;;;;;;0.80;0.73;;;11.60;99.90;;;;;;5034741;28;20502;-80
2021/05/23 07:10:14;;;;;;;2.63;1.07;;;11.70;99.90;;;;;;5032715;28;20477;-81
2021/05/23 07:12:40;;;;;;;5.10;0.90;;;11.70;99.90;;;;;;5034003;28;20436;-80
2021/05/23 07:15:08;;;;;;;0.80;0.80;;;11.70;99.90;;;;;;5033757;28;20456;-80
2021/05/23 07:17:35;;;;;;;1.10;0.60;;;11.60;99.90;;;;;;5033324;28;20487;-80
2021/05/23 07:20:01;;;;;;;0.90;0.80;;;11.60;99.90;;;;;;5033003;28;20802;-80
2021/05/23 07:22:27;;;;;;;0.60;0.60;;;11.60;99.90;;;;;;5031442;28;20917;-80
2021/05/23 07:24:53;;;;;;;0.93;0.80;;;11.70;99.90;;;;;;5032870;28;20454;-80
2021/05/23 07:27:21;;;;;;;0.87;0.87;;;11.70;99.90;;;;;;5070839;28;20439;-80
2021/05/23 07:29:47;;;;;;;0.60;0.60;;;11.90;99.90;;;;;;5061863;28;20444;-80
2021/05/23 07:32:13;;;;;;;0.60;0.60;;;12.00;99.90;;;;;;5060734;28;20444;-79
2021/05/23 07:34:40;;;;;;;0.90;0.90;;;12.10;99.90;;;;;;5061521;28;20485;-80
2021/05/23 07:37:06;;;;;;;0.63;0.60;;;12.10;99.90;;;;;;5061736;28;20486;-80
2021/05/23 07:39:32;;;;;;;1.30;0.70;;;12.20;99.90;;;;;;5064954;28;20494;-80
2021/05/23 07:41:58;;;;;;;1.23;0.67;;;12.20;99.90;;;;;;5065457;28;20478;-79
2021/05/23 07:44:25;;;;;;;1.23;1.00;;;12.10;99.90;;;;;;5068452;28;20449;-79
2021/05/23 07:46:52;;;;;;;1.27;0.70;;;11.80;99.90;;;;;;5066375;28;20449;-81
2021/05/23 07:49:18;;;;;;;1.80;0.80;;;11.30;99.90;;;;;;5062723;28;20526;-81
2021/05/23 07:51:45;;;;;;;1.07;0.47;;;10.80;99.90;;;;;;5067231;28;20448;-79
2021/05/23 07:54:12;;;;;;;1.25;0.75;;;10.50;99.90;;;;;;5060585;28;20472;-80
2021/05/23 07:56:41;;;;;;;1.27;1.20;;;10.40;99.90;;;;;;5057069;28;20281;-80
2021/05/23 07:59:07;;;;;;;1.85;1.13;;;10.20;99.90;;;;;;5057546;28;20232;-80
2021/05/23 08:01:34;;;;;;;0.53;0.53;;;10.20;99.90;;;;;;5057025;28;20192;-81
2021/05/23 08:04:02;;;;;;;0.90;0.90;;;10.10;99.90;;;;;;5056463;28;20450;-82
2021/05/23 08:06:30;;;;;;;1.05;0.80;;;10.10;99.90;;;;;;5055247;28;20305;-83
2021/05/23 08:22:23;;;;;;;5.23;1.40;;;10.50;99.90;;;;;;5042461;28;20479;-82
2021/05/23 08:31:29;;;;;;;;;;;;;;;;;;;;;
2021/05/23 08:34:14;;;;;;;1.17;1.13;;;11.20;99.90;;;;;;5042793;28;20491;-81
2021/05/23 08:39:43;;;;;;;2.43;0.90;;;11.80;99.90;;;;;;4917978;29;20525;-81
2021/05/23 08:42:09;;;;;;;2.30;1.40;;;12.00;99.90;;;;;;5003539;28;20452;-82
2021/05/23 08:44:37;;;;;;;4.00;1.40;;;12.20;99.90;;;;;;5040781;28;20514;-83
2021/05/23 08:47:04;;;;;;;0.70;0.70;;;12.30;99.90;;;;;;5042197;28;20448;-83
2021/05/23 08:49:31;;;;;;;2.70;1.33;;;12.40;99.90;;;;;;5041155;28;20472;-82
2021/05/23 08:51:58;;;;;;;1.60;1.27;;;12.50;99.90;;;;;;5040087;28;20452;-82
2021/05/23 08:54:24;;;;;;;2.60;1.10;;;12.50;99.90;;;;;;5040530;28;20464;-82
2021/05/23 08:56:52;;;;;;;2.80;1.87;;;12.70;99.90;;;;;;5040572;28;20484;-82
2021/05/23 08:59:19;;;;;;;1.83;0.97;;;12.90;99.90;;;;;;5039319;28;20491;-82
2021/05/23 09:01:46;;;;;;;1.93;1.00;;;13.10;99.90;;;;;;5038836;28;20540;-83
2021/05/23 09:04:16;;;;;;;0.83;0.80;;;13.10;99.90;;;;;;5040690;28;20505;-83
2021/05/23 09:06:42;;;;;;;1.00;0.90;;;13.20;99.90;;;;;;5039808;28;21049;-82
2021/05/23 09:09:10;;;;;;;1.63;0.93;;;13.20;99.90;;;;;;5039549;28;20502;-84
2021/05/23 09:11:39;;;;;;;0.87;0.80;;;13.10;99.90;;;;;;5039523;28;20455;-84
2021/05/23 09:14:07;;;;;;;1.13;1.03;;;13.10;99.90;;;;;;5039660;28;20457;-83
2021/05/23 09:16:37;;;;;;;2.97;0.90;;;13.30;99.90;;;;;;5041954;28;20484;-84
2021/05/23 09:19:04;;;;;;;3.33;0.93;;;13.30;99.90;;;;;;5039986;28;20476;-83
2021/05/23 09:21:32;;;;;;;1.53;0.70;;;13.40;99.90;;;;;;5040051;28;20472;-83
2021/05/23 09:24:03;;;;;;;1.23;1.13;;;13.50;99.90;;;;;;5040649;28;20449;-82
2021/05/23 09:26:31;;;;;;;2.70;1.10;;;13.50;99.90;;;;;;5041314;28;20455;-83
2021/05/23 09:29:06;;;;;;;0.57;0.57;;;13.50;99.90;;;;;;5038702;28;20473;-82
2021/05/23 09:31:32;;;;;;;1.10;0.90;;;13.60;99.90;;;;;;5040536;28;20439;-82
2021/05/23 09:33:59;;;;;;;0.90;0.80;;;13.60;99.90;;;;;;5040393;28;20498;-82
2021/05/23 09:36:26;;;;;;;0.70;0.70;;;13.70;99.90;;;;;;5041293;28;20485;-83
2021/05/23 09:38:57;;;;;;;1.33;0.90;;;13.70;99.90;;;;;;5040360;28;20476;-82
2021/05/23 09:41:26;;;;;;;1.70;0.67;;;13.60;99.90;;;;;;5040262;28;20456;-82
2021/05/23 09:44:13;;;;;;;0.83;0.63;;;13.40;99.90;;;;;;5042080;28;20457;-82
2021/05/23 09:46:50;;;;;;;0.93;0.70;;;13.00;99.90;;;;;;5044517;28;20459;-84
2021/05/23 09:49:17;;;;;;;1.13;0.63;;;12.40;99.90;;;;;;5046084;28;20474;-82
2021/05/23 09:51:50;;;;;;;0.77;0.77;;;12.10;99.90;;;;;;5048479;28;20487;-81
2021/05/23 09:54:16;;;;;;;0.90;0.80;;;12.00;99.90;;;;;;5050187;28;20457;-83
2021/05/23 09:56:43;;;;;;;0.60;0.60;;;12.00;99.90;;;;;;5051809;28;20496;-83
2021/05/23 09:59:20;;;;;;;0.57;0.57;;;11.90;99.90;;;;;;5050784;28;20483;-83
2021/05/23 10:01:47;;;;;;;0.60;0.60;;;11.90;99.90;;;;;;5052486;28;20497;-85
2021/05/23 10:04:21;;;;;;;1.43;0.80;;;11.90;99.90;;;;;;5053762;28;20546;-85
2021/05/23 10:06:58;;;;;;;1.63;0.80;;;12.00;99.90;;;;;;5051486;28;20445;-80
2021/05/23 10:09:26;;;;;;;3.27;1.00;;;12.10;99.90;;;;;;5040041;28;20473;-81
2021/05/23 10:11:52;;;;;;;1.77;0.87;;;12.30;99.90;;;;;;5040616;28;20438;-79
2021/05/23 10:14:19;;;;;;;0.40;0.40;;;12.50;99.90;;;;;;5042713;28;20536;-81
2021/05/23 10:16:51;;;;;;;0.70;0.70;;;12.70;99.90;;;;;;5043066;28;20526;-80
2021/05/23 10:19:21;;;;;;;0.90;0.90;;;13.00;99.90;;;;;;5042761;28;20465;-80
2021/05/23 10:21:48;;;;;;;1.23;0.80;;;13.10;99.90;;;;;;5041287;28;20452;-80
2021/05/23 10:24:23;;;;;;;0.73;0.60;;;13.30;99.90;;;;;;5041644;28;20563;-81
2021/05/23 10:26:53;;;;;;;1.07;0.77;;;13.30;99.90;;;;;;5039665;28;20449;-82
2021/05/23 10:29:21;;;;;;;0.93;0.80;;;13.30;99.90;;;;;;5040950;28;20453;-82
2021/05/23 10:31:48;;;;;;;3.13;1.00;;;13.40;99.90;;;;;;5024724;28;20450;-82
2021/05/23 10:34:14;;;;;;;2.87;0.53;;;13.70;99.90;;;;;;5022345;28;20469;-82
2021/05/23 10:36:42;;;;;;;4.07;1.43;;;13.80;99.90;;;;;;5022878;28;20481;-82
2021/05/23 10:39:10;;;;;;;1.23;1.07;;;14.00;99.90;;;;;;5024334;28;20470;-83
2021/05/23 10:41:37;;;;;;;0.60;0.57;;;14.30;99.90;;;;;;5025840;28;20454;-80
2021/05/23 10:44:06;;;;;;;0.77;0.53;;;14.80;99.90;;;;;;5028581;28;20446;-82
2021/05/23 10:46:43;;;;;;;1.53;1.53;;;15.20;98.50;;;;;;5027922;28;20477;-82
2021/05/23 10:49:10;;;;;;;1.10;0.80;;;15.50;98.90;;;;;;5028444;28;20488;-81
2021/05/23 10:51:36;;;;;;;0.80;0.60;;;15.80;99.10;;;;;;5028034;28;20445;-81
2021/05/23 10:54:13;;;;;;;1.10;1.00;;;15.90;99.40;;;;;;5027336;28;20547;-82
2021/05/23 10:56:40;;;;;;;0.63;0.50;;;16.10;96.90;;;;;;5026797;28;20481;-81
2021/05/23 10:59:06;;;;;;;0.70;0.70;;;16.20;95.50;;;;;;5027845;28;20538;-81
2021/05/23 11:01:41;;;;;;;1.33;1.00;;;16.30;97.70;;;;;;5028603;28;20530;-79
2021/05/23 11:04:09;;;;;;;1.20;1.03;;;16.30;94.30;;;;;;5028922;28;20514;-80
2021/05/23 11:06:36;;;;;;;0.50;0.43;;;16.10;93.80;;;;;;5029199;28;20857;-80
2021/05/23 11:09:10;;;;;;;1.60;1.00;;;15.80;95.40;;;;;;5026898;28;20462;-81
2021/05/23 11:11:36;;;;;;;1.73;0.70;;;15.50;97.30;;;;;;5030576;28;20468;-80
2021/05/23 11:14:18;;;;;;;1.53;0.80;;;15.50;98.90;;;;;;5034793;28;20455;-80
2021/05/23 11:16:50;;;;;;;0.60;0.60;;;15.50;97.50;;;;;;5035489;28;20487;-80
2021/05/23 11:19:18;;;;;;;1.07;0.70;;;15.60;98.10;;;;;;5035114;28;20581;-79
2021/05/23 11:21:45;;;;;;;1.00;0.70;;;15.80;99.90;;;;;;5034208;28;20529;-81
2021/05/23 11:24:12;;;;;;;0.80;0.70;;;16.00;97.00;;;;;;5030393;28;20451;-82
2021/05/23 11:26:39;;;;;;;0.50;0.50;;;15.80;96.80;;;;;;5026119;28;20451;-81
2021/05/23 11:29:07;;;;;;;0.73;0.60;;;15.70;98.10;;;;;;5028830;28;20478;-80
2021/05/23 11:31:35;;;;;;;1.20;0.63;;;15.90;98.20;;;;;;5032833;28;20447;-81
2021/05/23 11:34:04;;;;;;;0.40;0.40;;;16.30;99.10;;;;;;5030583;28;20523;-82
2021/05/23 11:36:32;;;;;;;0.70;0.70;;;16.60;97.10;;;;;;5029238;28;20511;-81
2021/05/23 11:39:00;;;;;;;0.60;0.57;;;16.70;94.40;;;;;;5027001;28;20466;-82
2021/05/23 11:41:28;;;;;;;1.33;0.70;;;16.60;96.80;;;;;;5029918;28;20567;-80
2021/05/23 11:43:56;;;;;;;0.93;0.93;;;16.60;98.10;;;;;;5027662;28;20455;-81
2021/05/23 11:46:23;;;;;;;0.70;0.70;;;16.80;94.90;;;;;;5030045;28;20467;-80
2021/05/23 11:48:50;;;;;;;0.83;0.50;;;16.90;95.70;;;;;;5032049;28;20471;-82
2021/05/23 11:51:22;;;;;;;1.20;0.70;;;16.80;96.30;;;;;;5034339;28;20447;-80
2021/05/23 11:53:50;;;;;;;0.80;0.40;;;16.70;94.30;;;;;;5032571;28;20447;-81
2021/05/23 11:56:17;;;;;;;0.40;0.40;;;16.90;94.10;;;;;;5033225;28;20483;-81
2021/05/23 11:58:45;;;;;;;0.40;0.40;;;17.30;97.10;;;;;;5032122;28;20463;-83
2021/05/23 12:01:20;;;;;;;2.00;0.70;;;17.80;94.40;;;;;;5032801;28;20465;-82
2021/05/23 12:04:01;;;;;;;1.53;0.47;;;18.20;93.50;;;;;;5025492;28;20448;-83
2021/05/23 12:06:30;;;;;;;1.30;0.50;;;18.70;92.10;;;;;;5029397;28;20451;-82
2021/05/23 12:09:10;;;;;;;1.57;0.60;;;19.10;90.20;;;;;;5032793;28;20474;-82
2021/05/23 12:11:38;;;;;;;1.47;0.50;;;19.50;87.70;;;;;;5032174;28;20509;-82
2021/05/23 12:14:04;;;;;;;0.53;0.50;;;19.90;85.90;;;;;;5029648;28;20499;-81
2021/05/23 12:16:31;;;;;;;0.73;0.47;;;20.40;82.70;;;;;;5028324;28;20490;-81
2021/05/23 12:18:57;;;;;;;1.23;0.60;;;20.90;79.40;;;;;;5029157;28;20891;-83
2021/05/23 12:21:26;;;;;;;1.40;0.70;;;21.20;79.90;;;;;;5026228;28;20932;-83
2021/05/23 12:23:55;;;;;;;3.63;1.23;;;21.30;77.60;;;;;;5030637;28;20449;-83
2021/05/23 12:26:23;;;;;;;2.87;0.90;;;21.10;74.90;;;;;;5029583;28;20451;-81
2021/05/23 12:28:52;;;;;;;0.97;0.70;;;21.20;78.50;;;;;;5032542;28;20474;-81
2021/05/23 12:31:20;;;;;;;0.53;0.53;;;21.30;73.00;;;;;;5031039;28;20431;-82
2021/05/23 12:33:51;;;;;;;0.50;0.47;;;21.50;73.20;;;;;;5033769;28;20515;-82
2021/05/23 12:36:18;;;;;;;0.90;0.83;;;21.30;70.00;;;;;;5033623;28;20450;-82
2021/05/23 12:38:56;;;;;;;1.77;0.50;;;20.80;71.30;;;;;;5033802;28;20492;-82
2021/05/23 12:41:33;;;;;;;0.50;0.50;;;20.30;71.90;;;;;;5034029;28;20435;-81
2021/05/23 12:43:59;;;;;;;1.00;0.60;;;19.70;73.90;;;;;;5033588;28;20452;-82
2021/05/23 12:46:25;;;;;;;0.50;0.50;;;19.30;72.90;;;;;;5032962;28;20449;-82
2021/05/23 12:48:52;;;;;;;0.50;0.50;;;18.80;72.10;;;;;;5028309;28;20515;-82
2021/05/23 12:51:19;;;;;;;0.70;0.60;;;18.40;72.00;;;;;;5030863;28;20449;-83
2021/05/23 12:53:48;;;;;;;0.60;0.60;;;18.00;75.90;;;;;;5029613;28;20449;-82
2021/05/23 12:56:17;;;;;;;1.43;0.60;;;17.80;77.10;;;;;;5034388;28;20999;-82
2021/05/23 12:58:48;;;;;;;0.70;0.70;;;17.40;78.20;;;;;;5034914;28;20478;-81
2021/05/23 13:01:16;;;;;;;1.83;0.93;;;16.80;81.80;;;;;;5033106;28;20447;-81
2021/05/23 13:03:49;;;;;;;1.17;0.90;;;16.50;83.90;;;;;;5034646;28;20435;-81
2021/05/23 13:06:15;;;;;;;0.67;0.53;;;16.30;85.10;;;;;;5032483;28;20448;-81
2021/05/23 13:08:42;;;;;;;0.80;0.60;;;16.40;85.00;;;;;;5032678;28;20484;-81
2021/05/23 13:11:18;;;;;;;2.93;0.77;;;16.40;84.30;;;;;;5032201;28;20448;-81
2021/05/23 13:13:45;;;;;;;0.47;0.40;;;16.80;81.30;;;;;;5032462;28;20453;-81
2021/05/23 13:16:11;;;;;;;1.00;0.80;;;17.30;78.40;;;;;;5032754;28;20527;-81
2021/05/23 13:18:41;;;;;;;0.67;0.50;;;18.40;78.10;;;;;;5031671;28;20473;-82